createdAt,value
2022-08-25T00:00:31.464Z,21.39
2022-08-25T00:02:59.877Z,21.40
2022-08-25T00:05:32.547Z,21.45
2022-08-25T00:08:02.024Z,21.38
2022-08-25T00:10:30.432Z,21.38
2022-08-25T00:13:00.444Z,21.40
2022-08-25T00:15:28.924Z,21.48
2022-08-25T00:17:57.261Z,21.43
2022-08-25T00:20:26.502Z,20.88
2022-08-25T00:22:56.083Z,21.04
2022-08-25T00:25:24.489Z,21.19
2022-08-25T00:27:52.828Z,21.24
2022-08-25T00:30:22.207Z,21.26
2022-08-25T00:32:52.540Z,21.20
2022-08-25T00:35:25.450Z,21.21
2022-08-25T00:37:53.550Z,21.08
2022-08-25T00:40:21.788Z,21.27
2022-08-25T00:42:49.688Z,21.21
2022-08-25T00:45:18.870Z,21.05
2022-08-25T00:47:48.604Z,20.85
2022-08-25T00:50:17.331Z,20.60
2022-08-25T00:52:49.045Z,20.13
2022-08-25T00:55:21.857Z,19.78
2022-08-25T00:57:55.377Z,20.63
2022-08-25T01:00:28.704Z,20.79
2022-08-25T01:02:58.221Z,21.01
2022-08-25T01:05:27.619Z,21.17
2022-08-25T01:07:58.621Z,21.19
2022-08-25T01:10:28.841Z,21.10
2022-08-25T01:13:01.799Z,21.10
2022-08-25T01:15:31.172Z,21.05
2022-08-25T01:18:01.181Z,20.98
2022-08-25T01:20:31.741Z,20.94
2022-08-25T01:23:01.615Z,20.66
2022-08-25T01:25:47.064Z,21.00
2022-08-25T01:28:15.556Z,20.98
2022-08-25T01:30:43.919Z,20.97
2022-08-25T01:33:13.122Z,21.00
2022-08-25T01:35:41.952Z,21.06
2022-08-25T01:38:11.424Z,21.12
2022-08-25T01:40:40.868Z,21.15
2022-08-25T01:43:18.192Z,21.02
2022-08-25T01:45:48.568Z,20.92
2022-08-25T01:48:17.644Z,20.82
2022-08-25T01:50:45.561Z,20.89
2022-08-25T01:53:20.572Z,21.07
2022-08-25T01:56:01.737Z,21.09
2022-08-25T01:58:33.180Z,21.15
2022-08-25T02:01:03.561Z,21.20
2022-08-25T02:03:31.695Z,20.81
2022-08-25T02:06:01.345Z,21.09
2022-08-25T02:08:34.031Z,20.90
2022-08-25T02:11:02.015Z,21.03
2022-08-25T02:13:31.674Z,21.03
2022-08-25T02:16:02.994Z,20.86
2022-08-25T02:18:31.320Z,20.77
2022-08-25T02:20:59.439Z,20.47
2022-08-25T02:23:28.211Z,20.65
2022-08-25T02:25:58.327Z,20.65
2022-08-25T02:28:26.941Z,20.65
2022-08-25T02:31:01.067Z,20.61
2022-08-25T02:33:29.748Z,20.55
2022-08-25T02:35:59.441Z,20.62
2022-08-25T02:38:28.537Z,20.51
2022-08-25T02:40:59.150Z,20.62
2022-08-25T02:43:28.085Z,20.54
2022-08-25T02:45:56.683Z,20.70
2022-08-25T02:48:24.787Z,20.65
2022-08-25T02:50:54.864Z,20.76
2022-08-25T02:53:23.493Z,20.53
2022-08-25T02:55:52.050Z,20.68
2022-08-25T02:58:21.704Z,20.76
2022-08-25T03:00:50.602Z,20.70
2022-08-25T03:03:19.964Z,20.55
2022-08-25T03:05:48.070Z,20.59
2022-08-25T03:08:16.669Z,20.62
2022-08-25T03:10:44.857Z,20.57
2022-08-25T03:13:15.295Z,20.52
2022-08-25T03:15:45.847Z,20.39
2022-08-25T03:18:14.170Z,20.34
2022-08-25T03:20:42.515Z,20.44
2022-08-25T03:23:10.448Z,20.36
2022-08-25T03:25:58.249Z,20.55
2022-08-25T03:28:31.213Z,20.51
2022-08-25T03:31:01.253Z,20.48
2022-08-25T03:33:30.262Z,20.54
2022-08-25T03:35:59.130Z,20.66
2022-08-25T03:38:27.537Z,20.65
2022-08-25T03:40:55.745Z,20.60
2022-08-25T03:43:23.768Z,20.63
2022-08-25T03:45:51.777Z,20.20
2022-08-25T03:48:21.099Z,20.38
2022-08-25T03:50:51.301Z,20.69
2022-08-25T03:53:20.590Z,20.63
2022-08-25T03:55:48.850Z,19.89
2022-08-25T03:58:18.126Z,20.67
2022-08-25T04:00:46.109Z,20.74
2022-08-25T04:03:14.080Z,20.73
2022-08-25T04:05:43.380Z,20.64
2022-08-25T04:08:11.315Z,20.70
2022-08-25T04:10:39.422Z,20.64
2022-08-25T04:13:07.435Z,20.72
2022-08-25T04:15:36.583Z,20.66
2022-08-25T04:18:05.039Z,20.75
2022-08-25T04:20:33.061Z,20.82
2022-08-25T04:23:02.790Z,20.86
2022-08-25T04:25:31.381Z,20.87
2022-08-25T04:27:59.371Z,20.85
2022-08-25T04:30:27.451Z,20.88
2022-08-25T04:32:55.859Z,20.91
2022-08-25T04:35:24.936Z,20.89
2022-08-25T04:37:52.878Z,20.91
2022-08-25T04:40:28.731Z,20.93
2022-08-25T04:42:57.229Z,20.94
2022-08-25T04:45:26.358Z,20.94
2022-08-25T04:47:55.267Z,20.99
2022-08-25T04:50:23.203Z,21.11
2022-08-25T04:52:51.097Z,21.27
2022-08-25T04:55:19.239Z,21.36
2022-08-25T04:57:48.623Z,21.36
2022-08-25T05:00:18.151Z,21.43
2022-08-25T05:02:46.048Z,21.37
2022-08-25T05:05:14.033Z,21.58
2022-08-25T05:07:41.980Z,21.62
2022-08-25T05:10:09.892Z,21.89
2022-08-25T05:12:37.808Z,21.91
2022-08-25T05:15:21.717Z,21.94
2022-08-25T05:17:52.719Z,22.07
2022-08-25T05:20:25.577Z,22.56
2022-08-25T05:22:53.830Z,22.61
2022-08-25T05:25:21.792Z,22.48
2022-08-25T05:27:49.788Z,22.46
2022-08-25T05:30:19.129Z,22.34
2022-08-25T05:32:47.012Z,22.39
2022-08-25T05:35:15.565Z,22.35
2022-08-25T05:37:43.716Z,22.36
2022-08-25T05:40:12.046Z,22.80
2022-08-25T05:42:40.304Z,23.12
2022-08-25T05:45:09.877Z,23.39
2022-08-25T05:47:45.511Z,23.79
2022-08-25T05:50:13.751Z,23.47
2022-08-25T05:52:41.828Z,23.28
2022-08-25T05:55:10.189Z,23.31
2022-08-25T05:57:38.227Z,23.30
2022-08-25T06:00:08.198Z,22.92
2022-08-25T06:02:44.709Z,22.77
2022-08-25T06:05:17.533Z,22.77
2022-08-25T06:07:45.608Z,22.77
2022-08-25T06:10:14.093Z,22.78
2022-08-25T06:12:45.503Z,22.63
2022-08-25T06:15:14.679Z,22.46
2022-08-25T06:17:43.520Z,22.79
2022-08-25T06:20:15.438Z,22.86
2022-08-25T06:22:44.253Z,22.95
2022-08-25T06:25:14.779Z,23.33
2022-08-25T06:27:42.721Z,23.76
2022-08-25T06:30:15.069Z,23.94
2022-08-25T06:32:45.787Z,24.46
2022-08-25T06:35:17.905Z,24.76
2022-08-25T06:37:46.376Z,25.11
2022-08-25T06:40:16.300Z,25.47
2022-08-25T06:42:44.391Z,25.40
2022-08-25T06:45:12.812Z,25.52
2022-08-25T06:47:42.922Z,25.53
2022-08-25T06:50:14.972Z,25.24
2022-08-25T06:52:43.157Z,25.33
2022-08-25T06:55:11.555Z,26.09
2022-08-25T06:57:39.516Z,26.10
2022-08-25T07:00:09.307Z,25.68
2022-08-25T07:02:38.517Z,24.96
2022-08-25T07:05:08.315Z,24.94
2022-08-25T07:07:43.102Z,24.73
2022-08-25T07:10:12.895Z,25.02
2022-08-25T07:12:41.595Z,25.64
2022-08-25T07:15:19.692Z,25.78
2022-08-25T07:17:48.907Z,25.28
2022-08-25T07:20:19.229Z,25.65
2022-08-25T07:22:49.225Z,25.48
2022-08-25T07:25:18.004Z,25.94
2022-08-25T07:27:46.155Z,26.14
2022-08-25T07:30:14.261Z,26.25
2022-08-25T07:38:21.607Z,25.86
2022-08-25T07:40:54.649Z,25.72
2022-08-25T07:43:25.047Z,25.62
2022-08-25T07:45:53.080Z,26.22
2022-08-25T07:48:21.086Z,26.15
2022-08-25T07:50:50.535Z,25.96
2022-08-25T07:53:21.014Z,26.03
2022-08-25T07:55:50.709Z,26.59
2022-08-25T07:58:21.679Z,27.59
2022-08-25T08:00:50.800Z,28.54
2022-08-25T08:03:35.519Z,28.90
2022-08-25T08:06:10.487Z,28.44
2022-08-25T08:08:43.261Z,28.17
2022-08-25T08:11:17.218Z,28.03
2022-08-25T08:13:45.277Z,28.41
2022-08-25T08:16:15.077Z,28.28
2022-08-25T08:18:43.622Z,28.88
2022-08-25T08:21:20.068Z,29.26
2022-08-25T08:23:49.679Z,28.97
2022-08-25T08:26:17.728Z,29.98
2022-08-25T08:28:52.136Z,30.65
2022-08-25T08:31:21.255Z,30.87
2022-08-25T08:33:49.581Z,31.43
2022-08-25T08:36:19.365Z,31.20
2022-08-25T08:38:50.569Z,30.14
2022-08-25T08:42:11.867Z,30.54
2022-08-25T08:44:51.488Z,30.77
2022-08-25T08:47:29.799Z,30.56
2022-08-25T08:50:05.940Z,30.25
2022-08-25T08:52:42.621Z,30.06
2022-08-25T08:55:19.932Z,31.65
2022-08-25T08:57:51.885Z,32.21
2022-08-25T09:00:19.912Z,32.31
2022-08-25T09:02:54.555Z,31.34
2022-08-25T09:05:27.222Z,31.31
2022-08-25T09:07:58.973Z,30.68
2022-08-25T09:10:36.762Z,29.93
2022-08-25T09:13:21.284Z,29.28
2022-08-25T09:16:31.596Z,29.29
2022-08-25T09:19:23.368Z,29.27
2022-08-25T09:21:58.964Z,29.04
2022-08-25T09:24:46.217Z,29.78
2022-08-25T09:27:38.678Z,30.19
2022-08-25T09:30:11.808Z,28.77
2022-08-25T09:32:49.029Z,28.59
2022-08-25T09:35:24.113Z,28.45
2022-08-25T09:38:00.444Z,30.59
2022-08-25T09:40:30.408Z,30.64
2022-08-25T09:43:05.709Z,29.44
2022-08-25T09:45:42.394Z,29.66
2022-08-25T09:48:25.908Z,29.99
2022-08-25T09:50:58.532Z,30.36
2022-08-25T09:53:28.688Z,29.86
2022-08-25T09:56:06.439Z,29.74
2022-08-25T09:58:35.902Z,30.24
2022-08-25T10:01:14.672Z,30.19
2022-08-25T10:04:00.291Z,29.56
2022-08-25T10:06:32.219Z,29.24
2022-08-25T10:09:03.706Z,29.01
2022-08-25T10:11:41.813Z,29.46
2022-08-25T10:14:28.709Z,30.20
2022-08-25T10:17:16.540Z,30.26
2022-08-25T10:19:45.123Z,29.75
2022-08-25T10:22:22.523Z,30.12
2022-08-25T10:24:50.848Z,30.67
2022-08-25T10:27:28.602Z,30.92
2022-08-25T10:30:09.507Z,30.88
2022-08-25T10:32:54.593Z,31.32
2022-08-25T10:35:28.410Z,31.51
2022-08-25T10:38:10.150Z,31.76
2022-08-25T10:40:44.270Z,32.12
2022-08-25T10:43:24.928Z,31.91
2022-08-25T10:46:01.239Z,32.06
2022-08-25T10:48:53.698Z,32.64
2022-08-25T10:51:37.605Z,31.26
2022-08-25T10:54:12.866Z,30.41
2022-08-25T10:56:45.009Z,30.66
2022-08-25T10:59:27.823Z,31.21
2022-08-25T11:02:33.451Z,32.07
2022-08-25T11:05:07.005Z,33.56
2022-08-25T11:07:38.657Z,34.06
2022-08-25T11:10:13.268Z,34.17
2022-08-25T11:12:46.160Z,33.76
2022-08-25T11:15:26.120Z,34.11
2022-08-25T11:17:59.458Z,33.68
2022-08-25T11:20:36.061Z,33.19
2022-08-25T11:23:12.680Z,33.20
2022-08-25T11:25:44.104Z,33.04
2022-08-25T11:28:17.395Z,33.10
2022-08-25T11:30:46.386Z,32.07
2022-08-25T11:33:19.373Z,31.98
2022-08-25T11:35:52.348Z,31.72
2022-08-25T11:38:34.470Z,30.90
2022-08-25T11:41:15.453Z,31.07
2022-08-25T11:44:17.928Z,31.73
2022-08-25T11:46:59.120Z,32.80
2022-08-25T11:49:46.087Z,32.54
2022-08-25T11:52:42.308Z,32.34
2022-08-25T11:55:14.406Z,31.94
2022-08-25T11:57:43.918Z,31.91
2022-08-25T12:00:34.225Z,33.38
2022-08-25T12:03:40.727Z,33.61
2022-08-25T12:06:26.616Z,32.64
2022-08-25T12:09:12.704Z,31.84
2022-08-25T12:11:50.067Z,32.17
2022-08-25T12:14:38.316Z,32.40
2022-08-25T12:17:12.072Z,32.53
2022-08-25T12:19:54.688Z,32.36
2022-08-25T12:22:51.626Z,32.52
2022-08-25T12:25:45.123Z,32.52
2022-08-25T12:28:39.091Z,32.76
2022-08-25T12:31:17.562Z,33.12
2022-08-25T12:33:59.427Z,32.65
2022-08-25T12:36:31.312Z,32.09
2022-08-25T12:39:19.251Z,32.21
2022-08-25T12:41:56.815Z,31.75
2022-08-25T12:44:47.148Z,31.08
2022-08-25T12:47:31.848Z,31.42
2022-08-25T12:50:29.361Z,31.82
2022-08-25T12:53:08.090Z,31.98
2022-08-25T12:55:39.967Z,31.88
2022-08-25T12:58:08.467Z,31.54
2022-08-25T13:00:52.864Z,31.67
2022-08-25T13:04:02.623Z,31.48
2022-08-25T13:06:43.539Z,31.33
2022-08-25T13:09:43.396Z,30.90
2022-08-25T13:12:20.072Z,30.32
2022-08-25T13:14:54.731Z,30.09
2022-08-25T13:17:33.923Z,30.15
2022-08-25T13:20:21.200Z,29.97
2022-08-25T13:22:56.735Z,30.05
2022-08-25T13:25:27.885Z,30.00
2022-08-25T13:28:06.459Z,29.87
2022-08-25T13:30:40.025Z,30.08
2022-08-25T13:33:20.033Z,29.93
2022-08-25T13:35:52.223Z,29.61
2022-08-25T13:38:20.095Z,29.48
2022-08-25T13:40:49.571Z,29.35
2022-08-25T13:43:27.362Z,29.21
2022-08-25T13:45:56.738Z,28.97
2022-08-25T13:48:35.651Z,28.77
2022-08-25T13:51:19.401Z,29.01
2022-08-25T13:53:54.858Z,28.88
2022-08-25T13:56:38.719Z,28.57
2022-08-25T13:59:24.092Z,28.31
2022-08-25T14:01:52.566Z,28.25
2022-08-25T14:04:31.926Z,28.45
2022-08-25T14:07:14.191Z,28.70
2022-08-25T14:09:47.685Z,28.46
2022-08-25T14:12:33.158Z,28.47
2022-08-25T14:15:09.134Z,28.15
2022-08-25T14:17:40.861Z,28.24
2022-08-25T14:20:23.621Z,28.29
2022-08-25T14:22:58.124Z,28.45
2022-08-25T14:25:27.388Z,28.52
2022-08-25T14:28:08.098Z,28.46
2022-08-25T14:30:46.118Z,28.60
2022-08-25T14:33:16.073Z,28.56
2022-08-25T14:35:47.530Z,28.59
2022-08-25T14:38:17.664Z,28.16
2022-08-25T14:40:45.888Z,28.72
2022-08-25T14:43:15.997Z,28.46
2022-08-25T14:45:48.130Z,28.34
2022-08-25T14:48:26.535Z,28.28
2022-08-25T14:50:57.270Z,28.18
2022-08-25T14:53:25.508Z,28.63
2022-08-25T14:55:58.712Z,28.41
2022-08-25T14:58:27.854Z,28.16
2022-08-25T15:01:05.537Z,27.97
2022-08-25T15:03:38.565Z,27.92
2022-08-25T15:06:07.522Z,27.80
2022-08-25T15:08:56.974Z,27.60
2022-08-25T15:11:25.004Z,27.49
2022-08-25T15:13:54.344Z,27.30
2022-08-25T15:16:35.169Z,27.18
2022-08-25T15:19:06.608Z,27.20
2022-08-25T15:21:36.191Z,27.02
2022-08-25T15:24:04.776Z,27.05
2022-08-25T15:26:35.450Z,27.07
2022-08-25T15:29:04.842Z,27.09
2022-08-25T15:31:34.208Z,27.05
2022-08-25T15:34:02.182Z,27.12
2022-08-25T15:36:30.239Z,27.05
2022-08-25T15:38:58.189Z,26.60
2022-08-25T15:41:27.796Z,26.84
2022-08-25T15:43:56.598Z,26.80
2022-08-25T15:46:26.373Z,26.15
2022-08-25T15:51:29.435Z,25.89
2022-08-25T15:53:58.354Z,26.62
2022-08-25T15:56:27.239Z,26.49
2022-08-25T15:58:55.789Z,26.46
2022-08-25T16:01:25.977Z,26.39
2022-08-25T16:03:55.463Z,26.35
2022-08-25T16:06:24.303Z,26.06
2022-08-25T16:08:53.727Z,26.24
2022-08-25T16:11:24.505Z,25.79
2022-08-25T16:13:54.161Z,26.27
2022-08-25T16:16:23.600Z,26.32
2022-08-25T16:18:52.609Z,26.34
2022-08-25T16:21:29.099Z,26.37
2022-08-25T16:24:07.442Z,26.43
2022-08-25T16:26:36.657Z,26.42
2022-08-25T16:29:06.528Z,26.36
2022-08-25T16:31:34.775Z,26.31
2022-08-25T16:34:02.753Z,26.04
2022-08-25T16:36:32.489Z,25.88
2022-08-25T16:39:01.725Z,26.27
2022-08-25T16:41:35.809Z,26.23
2022-08-25T16:44:07.735Z,26.30
2022-08-25T16:46:40.992Z,26.29
2022-08-25T16:49:10.417Z,26.28
2022-08-25T16:51:40.267Z,26.11
2022-08-25T16:54:27.643Z,26.10
2022-08-25T16:56:57.453Z,26.07
2022-08-25T16:59:26.777Z,26.03
2022-08-25T17:01:55.706Z,26.06
2022-08-25T17:04:32.016Z,26.03
2022-08-25T17:07:02.113Z,25.93
2022-08-25T17:09:30.741Z,25.47
2022-08-25T17:11:58.691Z,25.95
2022-08-25T17:14:26.948Z,25.90
2022-08-25T17:16:55.539Z,25.83
2022-08-25T17:19:24.989Z,25.79
2022-08-25T17:21:55.163Z,25.13
2022-08-25T17:24:29.695Z,25.58
2022-08-25T17:26:59.617Z,25.20
2022-08-25T17:29:29.268Z,25.51
2022-08-25T17:31:58.487Z,25.51
2022-08-25T17:34:29.503Z,25.43
2022-08-25T17:36:58.457Z,25.47
2022-08-25T17:39:29.045Z,25.43
2022-08-25T17:41:57.317Z,25.30
2022-08-25T17:44:25.254Z,25.12
2022-08-25T17:46:53.299Z,25.10
2022-08-25T17:49:22.507Z,25.09
2022-08-25T17:51:51.063Z,25.10
2022-08-25T17:54:19.987Z,25.00
2022-08-25T17:56:50.139Z,25.00
2022-08-25T17:59:18.917Z,24.93
2022-08-25T18:01:47.924Z,24.91
2022-08-25T18:04:17.866Z,24.79
2022-08-25T18:06:48.326Z,24.76
2022-08-25T18:09:17.779Z,24.80
2022-08-25T18:11:45.849Z,24.04
2022-08-25T18:14:16.668Z,23.82
2022-08-25T18:16:44.754Z,24.58
2022-08-25T18:19:14.325Z,24.59
2022-08-25T18:21:43.433Z,24.57
2022-08-25T18:24:13.398Z,24.48
2022-08-25T18:26:41.625Z,24.33
2022-08-25T18:29:12.156Z,24.05
2022-08-25T18:31:42.707Z,24.25
2022-08-25T18:34:11.609Z,24.01
2022-08-25T18:36:41.389Z,23.92
2022-08-25T18:39:28.035Z,23.95
2022-08-25T18:42:01.119Z,24.05
2022-08-25T18:44:29.360Z,24.05
2022-08-25T18:46:59.896Z,24.02
2022-08-25T18:49:35.840Z,23.96
2022-08-25T18:52:04.047Z,23.94
2022-08-25T18:54:31.931Z,23.87
2022-08-25T18:57:03.876Z,23.71
2022-08-25T18:59:31.807Z,23.78
2022-08-25T19:02:02.673Z,23.76
2022-08-25T19:04:32.287Z,23.79
2022-08-25T19:07:00.968Z,23.80
2022-08-25T19:09:29.776Z,23.81
2022-08-25T19:11:58.644Z,23.76
2022-08-25T19:14:27.011Z,23.52
2022-08-25T19:16:57.922Z,23.74
2022-08-25T19:19:27.596Z,23.68
2022-08-25T19:21:55.591Z,23.72
2022-08-25T19:24:23.765Z,23.74
2022-08-25T19:26:54.798Z,23.73
2022-08-25T19:29:23.737Z,23.77
2022-08-25T19:31:51.920Z,23.44
2022-08-25T19:34:28.407Z,23.51
2022-08-25T19:37:04.438Z,23.36
2022-08-25T19:39:32.819Z,23.33
2022-08-25T19:42:00.747Z,23.05
2022-08-25T19:44:31.543Z,23.35
2022-08-25T19:47:00.376Z,23.38
2022-08-25T19:49:37.356Z,23.11
2022-08-25T19:52:11.460Z,22.87
2022-08-25T19:54:44.354Z,23.31
2022-08-25T19:57:28.223Z,23.31
2022-08-25T20:00:05.036Z,23.20
2022-08-25T20:02:34.160Z,23.24
2022-08-25T20:05:02.144Z,23.20
2022-08-25T20:07:32.908Z,23.23
2022-08-25T20:10:01.764Z,23.19
2022-08-25T20:12:30.578Z,23.16
2022-08-25T20:14:59.236Z,23.28
2022-08-25T20:17:28.655Z,23.26
2022-08-25T20:19:59.811Z,23.26
2022-08-25T20:22:29.669Z,23.06
2022-08-25T20:25:01.181Z,23.24
2022-08-25T20:27:33.985Z,23.32
2022-08-25T20:30:03.273Z,23.28
2022-08-25T20:32:32.532Z,23.33
2022-08-25T20:35:00.803Z,23.31
2022-08-25T20:37:28.909Z,23.24
2022-08-25T20:39:57.010Z,23.26
2022-08-25T20:42:26.731Z,23.25
2022-08-25T20:44:54.680Z,23.28
2022-08-25T20:47:22.773Z,22.97
2022-08-25T20:49:50.860Z,23.19
2022-08-25T20:52:20.860Z,23.13
2022-08-25T20:54:50.990Z,23.07
2022-08-25T20:57:25.833Z,22.80
2022-08-25T20:59:56.283Z,23.05
2022-08-25T21:02:24.945Z,22.90
2022-08-25T21:04:53.450Z,22.95
2022-08-25T21:07:23.750Z,22.91
2022-08-25T21:09:52.265Z,22.87
2022-08-25T21:12:21.282Z,22.86
2022-08-25T21:14:49.407Z,22.92
2022-08-25T21:17:19.176Z,22.58
2022-08-25T21:22:16.759Z,22.85
2022-08-25T21:24:44.976Z,22.78
2022-08-25T21:27:12.940Z,22.77
2022-08-25T21:29:44.562Z,22.72
2022-08-25T21:32:12.835Z,22.71
2022-08-25T21:34:42.132Z,22.75
2022-08-25T21:37:10.484Z,22.78
2022-08-25T21:39:38.971Z,22.80
2022-08-25T21:44:42.012Z,22.75
2022-08-25T21:47:10.861Z,22.78
2022-08-25T21:49:38.825Z,22.43
2022-08-25T21:52:08.111Z,22.59
2022-08-25T21:54:36.033Z,22.48
2022-08-25T21:57:06.380Z,22.13
2022-08-25T21:59:37.053Z,22.49
2022-08-25T22:02:08.020Z,22.57
2022-08-25T22:04:38.877Z,22.49
2022-08-25T22:07:09.007Z,22.68
2022-08-25T22:09:37.408Z,22.25
2022-08-25T22:12:06.499Z,22.53
2022-08-25T22:14:34.949Z,22.55
2022-08-25T22:17:03.025Z,22.56
2022-08-25T22:19:31.069Z,22.52
2022-08-25T22:22:01.896Z,22.59
2022-08-25T22:24:31.194Z,22.50
2022-08-25T22:26:59.109Z,22.52
2022-08-25T22:29:28.622Z,22.11
2022-08-25T22:32:02.159Z,21.83
2022-08-25T22:34:33.150Z,21.21
2022-08-25T22:37:01.411Z,21.19
2022-08-25T22:39:29.561Z,21.14
2022-08-25T22:41:59.102Z,21.18
2022-08-25T22:44:28.204Z,21.29
2022-08-25T22:46:56.092Z,21.43
2022-08-25T22:49:24.047Z,21.43
2022-08-25T22:51:55.115Z,21.27
2022-08-25T22:54:25.372Z,21.03
2022-08-25T22:56:53.879Z,20.86
2022-08-25T22:59:23.168Z,20.79
2022-08-25T23:01:52.461Z,20.72
2022-08-25T23:04:20.721Z,19.97
2022-08-25T23:06:48.978Z,20.84
2022-08-25T23:09:17.544Z,20.82
2022-08-25T23:11:45.513Z,20.81
2022-08-25T23:14:13.881Z,20.82
2022-08-25T23:16:44.513Z,20.72
2022-08-25T23:19:13.745Z,20.64
2022-08-25T23:21:59.885Z,20.65
2022-08-25T23:24:29.665Z,20.60
2022-08-25T23:26:58.988Z,20.46
2022-08-25T23:29:27.842Z,20.41
2022-08-25T23:31:58.069Z,20.51
2022-08-25T23:34:28.590Z,20.64
2022-08-25T23:36:57.676Z,20.85
2022-08-25T23:39:25.717Z,20.94
2022-08-25T23:41:54.112Z,20.92
2022-08-25T23:44:23.255Z,20.95
2022-08-25T23:46:53.872Z,20.87
2022-08-25T23:49:25.163Z,20.80
2022-08-25T23:51:56.575Z,20.72
2022-08-25T23:54:31.592Z,20.75
2022-08-25T23:56:59.792Z,20.54
2022-08-25T23:59:27.741Z,20.72
